This demonstration page uses our WeatherBlox Daily Observations layout. Learn more.

Hourly Observations for November 4, 2016

Temp ( °F °C ) Dew Point ( °F °C ) Humidity (%) Winds ( mph kmh ) Pressure ( in mb ) Visibility ( mi km ) Precip ( " mm )
12:54 am 00:54 Clear 43 6.1 38 3.3 82 82 Calm 30.36 1028 9 14.48406 0 0
1:54 am 01:54 Clear 41 5 37 2.8 86 86 NNW 3 6 30.37 1028 10 16.0934 0 0
2:54 am 02:54 Hazy 44 6.7 38 3.3 79 79 Calm 30.37 1028 6 9.65604 0 0
3:54 am 03:54 Clear 40 4.4 37 2.8 89 89 Calm 30.38 1029 10 16.0934 0 0
4:54 am 04:54 Clear 42 5.6 37 2.8 82 82 Calm 30.37 1029 10 16.0934 0 0
5:54 am 05:54 Clear 37 2.8 35 1.7 93 93 Calm 30.39 1029 10 16.0934 0 0
6:54 am 06:54 Clear 38 3.3 36 2.2 93 93 N 6 9 30.4 1030 10 16.0934 0 0
7:54 am 07:54 Clear 39 3.9 37 2.8 93 93 Calm 30.41 1030 10 16.0934 0 0
8:54 am 08:54 Sunny 44 6.7 40 4.4 85 85 Calm 30.42 1030 10 16.0934 0 0
9:54 am 09:54 Sunny 51 10.6 44 6.7 77 77 SSW 3 6 30.41 1030 10 16.0934 0 0
10:54 am 10:54 Sunny 56 13.3 43 6.1 62 62 W 5 7 30.42 1030 10 16.0934 0 0
11:54 am 11:54 Sunny 63 17.2 43 6.1 48 48 WSW 6 9 30.41 1030 10 16.0934 0 0
12:54 pm 12:54 Sunny 67 19.4 42 5.6 41 41 W 8 13 30.39 1029 10 16.0934 0 0
1:54 pm 13:54 Sunny 71 21.7 43 6.1 36 36 VRB 3 6 30.36 1028 10 16.0934 0 0
2:54 pm 14:54 Sunny 74 23.3 42 5.6 32 32 SSW 3 6 30.33 1027 10 16.0934 0 0
3:54 pm 15:54 Sunny 74 23.3 39 3.9 28 28 SSW 3 6 30.31 1027 10 16.0934 0 0
4:54 pm 16:54 Sunny 74 23.3 49 9.4 41 41 NE 5 7 30.3 1026 10 16.0934 0 0
5:54 pm 17:54 Sunny 69 20.6 44 6.7 41 41 ENE 5 7 30.3 1026 10 16.0934 0 0
6:54 pm 18:54 Clear 60 15.6 44 6.7 56 56 Calm 30.3 1026 10 16.0934 0 0
7:54 pm 19:54 Hazy 61 16.1 44 6.7 54 54 Calm 30.31 1026 6 9.65604 0 0
8:54 pm 20:54 Clear 60 15.6 42 5.6 52 52 SE 3 6 30.31 1026 10 16.0934 0 0
9:54 pm 21:54 Clear 57 13.9 44 6.7 62 62 SSE 3 6 30.31 1026 10 16.0934 0 0
10:54 pm 22:54 Clear 54 12.2 44 6.7 69 69 Calm 30.3 1026 10 16.0934 0 0
11:54 pm 23:54 Clear 54 12.2 44 6.7 69 69 SE 5 7 30.3 1026 10 16.0934 0 0

Powered by AerisWeather